CPA662 VGHS-VHHH
Flight info
| Callsign | CPA662 |
|---|---|
| Flight time | N/A |
| Altitude | 39000 |
| Route | ADMIL1C ADMIL G463 CTG A599 LINSO/K0906S1190 A599 POU R473 SIERA SIERA7A |
| Aircraft | A359/H-SDE2E3GHIJ3J4J5LM1ORWXY/LB1D1 |
Departure
| Time | 2026-04-27 22:52 |
|---|---|
| Airport | Hazrat Shahjalal International Airport (VGHS) |
Arrival
| Time | N/A |
|---|---|
| Airport | Hong Kong International Airport (VHHH) |
| Time | Latitude | Longitude | Altitude | Speed | Heading |
|---|---|---|---|---|---|
| 2026-04-27 22:30 | 23.84571 | 90.40549 | 42 ft | 0 kts | 54° |
| 2026-04-27 22:31 | 23.84570 | 90.40549 | 42 ft | 0 kts | 54° |
| 2026-04-27 22:42 | 23.84564 | 90.40540 | 41 ft | 4 kts | 51° |
| 2026-04-27 22:42 | 23.84546 | 90.40519 | 39 ft | 4 kts | 37° |
| 2026-04-27 22:43 | 23.84523 | 90.40504 | 39 ft | 4 kts | 13° |
| 2026-04-27 22:43 | 23.84499 | 90.40505 | 38 ft | 3 kts | 325° |
| 2026-04-27 22:43 | 23.84497 | 90.40506 | 38 ft | 0 kts | 323° |
| 2026-04-27 22:45 | 23.84497 | 90.40507 | 38 ft | 0 kts | 323° |
| 2026-04-27 22:46 | 23.84521 | 90.40487 | 37 ft | 10 kts | 323° |
| 2026-04-27 22:46 | 23.84591 | 90.40431 | 42 ft | 14 kts | 323° |
| 2026-04-27 22:46 | 23.84660 | 90.40376 | 42 ft | 15 kts | 324° |
| 2026-04-27 22:46 | 23.84669 | 90.40277 | 42 ft | 14 kts | 238° |
| 2026-04-27 22:47 | 23.84666 | 90.40193 | 42 ft | 13 kts | 307° |
| 2026-04-27 22:47 | 23.84752 | 90.40117 | 42 ft | 19 kts | 324° |
| 2026-04-27 22:47 | 23.84868 | 90.40024 | 42 ft | 22 kts | 323° |
| 2026-04-27 22:47 | 23.85000 | 90.39919 | 42 ft | 23 kts | 324° |
| 2026-04-27 22:48 | 23.85137 | 90.39811 | 42 ft | 25 kts | 324° |
| 2026-04-27 22:48 | 23.85278 | 90.39699 | 41 ft | 26 kts | 324° |
| 2026-04-27 22:48 | 23.85372 | 90.39624 | 42 ft | 24 kts | 323° |
| 2026-04-27 22:48 | 23.85490 | 90.39530 | 42 ft | 19 kts | 324° |
| 2026-04-27 22:49 | 23.85600 | 90.39443 | 42 ft | 20 kts | 324° |
| 2026-04-27 22:49 | 23.85716 | 90.39351 | 42 ft | 17 kts | 323° |
| 2026-04-27 22:49 | 23.85755 | 90.39270 | 42 ft | 12 kts | 258° |
| 2026-04-27 22:49 | 23.85711 | 90.39184 | 42 ft | 14 kts | 235° |
| 2026-04-27 22:50 | 23.85651 | 90.39097 | 42 ft | 15 kts | 233° |
| 2026-04-27 22:50 | 23.85587 | 90.39001 | 42 ft | 16 kts | 234° |
| 2026-04-27 22:50 | 23.85519 | 90.38915 | 41 ft | 11 kts | 210° |
| 2026-04-27 22:50 | 23.85442 | 90.38908 | 41 ft | 11 kts | 166° |
| 2026-04-27 22:51 | 23.85407 | 90.38929 | 42 ft | 0 kts | 143° |
| 2026-04-27 22:51 | 23.85405 | 90.38931 | 42 ft | 5 kts | 143° |
| 2026-04-27 22:51 | 23.85201 | 90.39096 | 41 ft | 70 kts | 143° |
| 2026-04-27 22:51 | 23.84641 | 90.39537 | 43 ft | 127 kts | 143° |
| 2026-04-27 22:52 | 23.83789 | 90.40204 | 156 ft | 166 kts | 145° |
| 2026-04-27 22:52 | 23.82835 | 90.40967 | 672 ft | 168 kts | 145° |
| 2026-04-27 22:52 | 23.81916 | 90.41696 | 1409 ft | 162 kts | 146° |
| 2026-04-27 22:52 | 23.80968 | 90.42449 | 1642 ft | 178 kts | 147° |
| 2026-04-27 22:53 | 23.79909 | 90.43287 | 1819 ft | 196 kts | 147° |
| 2026-04-27 22:53 | 23.78779 | 90.44249 | 1999 ft | 218 kts | 140° |
| 2026-04-27 22:53 | 23.78013 | 90.45774 | 2165 ft | 249 kts | 104° |
| 2026-04-27 22:53 | 23.78154 | 90.47738 | 2411 ft | 272 kts | 79° |
| 2026-04-27 22:54 | 23.78671 | 90.49774 | 2821 ft | 282 kts | 77° |
| 2026-04-27 22:54 | 23.79202 | 90.51851 | 3334 ft | 286 kts | 78° |
| 2026-04-27 22:54 | 23.79708 | 90.53947 | 3909 ft | 286 kts | 78° |
| 2026-04-27 22:54 | 23.80198 | 90.56069 | 4436 ft | 289 kts | 79° |
| 2026-04-27 22:55 | 23.80353 | 90.58247 | 4872 ft | 288 kts | 102° |
| 2026-04-27 22:55 | 23.79606 | 90.60233 | 5245 ft | 284 kts | 132° |
| 2026-04-27 22:55 | 23.78198 | 90.61736 | 5601 ft | 283 kts | 145° |
| 2026-04-27 22:55 | 23.76669 | 90.63092 | 5703 ft | 284 kts | 146° |
| 2026-04-27 22:56 | 23.75128 | 90.64446 | 5710 ft | 285 kts | 146° |
| 2026-04-27 22:56 | 23.73589 | 90.65809 | 5704 ft | 285 kts | 146° |
| 2026-04-27 22:56 | 23.72042 | 90.67155 | 5755 ft | 283 kts | 149° |
| 2026-04-27 22:56 | 23.70333 | 90.68190 | 6053 ft | 281 kts | 161° |
| 2026-04-27 22:57 | 23.68542 | 90.69056 | 6576 ft | 282 kts | 162° |
| 2026-04-27 22:57 | 23.66733 | 90.69918 | 7040 ft | 286 kts | 162° |
| 2026-04-27 22:57 | 23.64898 | 90.70794 | 7499 ft | 290 kts | 162° |
| 2026-04-27 22:57 | 23.63035 | 90.71686 | 7955 ft | 295 kts | 162° |
| 2026-04-27 22:58 | 23.61142 | 90.72596 | 8389 ft | 299 kts | 162° |
| 2026-04-27 22:58 | 23.59226 | 90.73517 | 8842 ft | 303 kts | 162° |
| 2026-04-27 22:58 | 23.57284 | 90.74450 | 9327 ft | 307 kts | 162° |
| 2026-04-27 22:58 | 23.55316 | 90.75396 | 9776 ft | 311 kts | 162° |
| 2026-04-27 22:59 | 23.53303 | 90.76361 | 10011 ft | 323 kts | 161° |
| 2026-04-27 22:59 | 23.51226 | 90.77355 | 10199 ft | 336 kts | 161° |
| 2026-04-27 22:59 | 23.49047 | 90.78401 | 10395 ft | 348 kts | 161° |
| 2026-04-27 22:59 | 23.46783 | 90.79450 | 10566 ft | 359 kts | 163° |
| 2026-04-27 23:00 | 23.41991 | 90.81487 | 10882 ft | 380 kts | 163° |
| 2026-04-27 23:00 | 23.39488 | 90.82556 | 11048 ft | 390 kts | 163° |
| 2026-04-27 23:00 | 23.36947 | 90.83649 | 11304 ft | 396 kts | 163° |
| 2026-04-27 23:01 | 23.34387 | 90.84818 | 11618 ft | 403 kts | 158° |
| 2026-04-27 23:01 | 23.32025 | 90.86522 | 11936 ft | 412 kts | 145° |
| 2026-04-27 23:01 | 23.29798 | 90.88503 | 12262 ft | 416 kts | 143° |
| 2026-04-27 23:01 | 23.27564 | 90.90529 | 12559 ft | 420 kts | 143° |
| 2026-04-27 23:02 | 23.25308 | 90.92567 | 12871 ft | 423 kts | 144° |
| 2026-04-27 23:02 | 23.23032 | 90.94615 | 13182 ft | 426 kts | 144° |
| 2026-04-27 23:02 | 23.20736 | 90.96676 | 13492 ft | 429 kts | 144° |
| 2026-04-27 23:02 | 23.18424 | 90.98747 | 13806 ft | 431 kts | 144° |
| 2026-04-27 23:03 | 23.16111 | 91.00833 | 14140 ft | 433 kts | 143° |
| 2026-04-27 23:03 | 23.13805 | 91.02940 | 14461 ft | 434 kts | 143° |
| 2026-04-27 23:03 | 23.11494 | 91.05062 | 14775 ft | 436 kts | 142° |
| 2026-04-27 23:03 | 23.09176 | 91.07192 | 15136 ft | 436 kts | 142° |
| 2026-04-27 23:04 | 23.06863 | 91.09314 | 15590 ft | 434 kts | 142° |
| 2026-04-27 23:04 | 23.04547 | 91.11436 | 15907 ft | 437 kts | 142° |
| 2026-04-27 23:04 | 23.02217 | 91.13565 | 16208 ft | 439 kts | 142° |
| 2026-04-27 23:04 | 22.99874 | 91.15703 | 16521 ft | 442 kts | 142° |
| 2026-04-27 23:05 | 22.97513 | 91.17855 | 16785 ft | 445 kts | 142° |
| 2026-04-27 23:05 | 22.95137 | 91.20019 | 17112 ft | 447 kts | 141° |
| 2026-04-27 23:05 | 22.92758 | 91.22187 | 17433 ft | 448 kts | 141° |
| 2026-04-27 23:05 | 22.90363 | 91.24367 | 17737 ft | 450 kts | 141° |
| 2026-04-27 23:06 | 22.87957 | 91.26556 | 18036 ft | 452 kts | 141° |
| 2026-04-27 23:06 | 22.85544 | 91.28751 | 18302 ft | 453 kts | 141° |
| 2026-04-27 23:06 | 22.83128 | 91.30956 | 18569 ft | 455 kts | 141° |
| 2026-04-27 23:06 | 22.80700 | 91.33164 | 18846 ft | 456 kts | 141° |
| 2026-04-27 23:07 | 22.78265 | 91.35374 | 19111 ft | 458 kts | 141° |
| 2026-04-27 23:07 | 22.75822 | 91.37590 | 19359 ft | 459 kts | 142° |
| 2026-04-27 23:07 | 22.73369 | 91.39813 | 19616 ft | 460 kts | 142° |
| 2026-04-27 23:07 | 22.70909 | 91.42043 | 19877 ft | 462 kts | 142° |
| 2026-04-27 23:08 | 22.68447 | 91.44273 | 20142 ft | 462 kts | 142° |
| 2026-04-27 23:08 | 22.65978 | 91.46511 | 20399 ft | 464 kts | 142° |
| 2026-04-27 23:08 | 22.63499 | 91.48756 | 20649 ft | 465 kts | 142° |
| 2026-04-27 23:08 | 22.61014 | 91.51005 | 20883 ft | 466 kts | 142° |
| 2026-04-27 23:09 | 22.58521 | 91.53262 | 21136 ft | 468 kts | 141° |
| 2026-04-27 23:09 | 22.56024 | 91.55525 | 21365 ft | 469 kts | 141° |
| 2026-04-27 23:09 | 22.53513 | 91.57797 | 21606 ft | 470 kts | 141° |
| 2026-04-27 23:09 | 22.51003 | 91.60061 | 21853 ft | 472 kts | 141° |
| 2026-04-27 23:10 | 22.48477 | 91.62337 | 22079 ft | 473 kts | 141° |
| 2026-04-27 23:10 | 22.45946 | 91.64616 | 22306 ft | 474 kts | 141° |
| 2026-04-27 23:10 | 22.43405 | 91.66904 | 22495 ft | 476 kts | 141° |
| 2026-04-27 23:10 | 22.40886 | 91.69172 | 22662 ft | 479 kts | 141° |
| 2026-04-27 23:11 | 22.38290 | 91.71509 | 22890 ft | 480 kts | 141° |
| 2026-04-27 23:11 | 22.35721 | 91.73820 | 23119 ft | 481 kts | 141° |
| 2026-04-27 23:11 | 22.33217 | 91.76142 | 23317 ft | 483 kts | 137° |
| 2026-04-27 23:11 | 22.30940 | 91.78809 | 23498 ft | 485 kts | 128° |
| 2026-04-27 23:12 | 22.29092 | 91.81859 | 23649 ft | 486 kts | 117° |
| 2026-04-27 23:12 | 22.27802 | 91.85228 | 23831 ft | 486 kts | 105° |
| 2026-04-27 23:12 | 22.27143 | 91.88795 | 23991 ft | 485 kts | 93° |
| 2026-04-27 23:12 | 22.27131 | 91.92419 | 24130 ft | 484 kts | 83° |
| 2026-04-27 23:13 | 22.27487 | 91.96049 | 24205 ft | 487 kts | 81° |
| 2026-04-27 23:13 | 22.27979 | 91.99674 | 24386 ft | 488 kts | 79° |
| 2026-04-27 23:13 | 22.28524 | 92.03288 | 24578 ft | 488 kts | 78° |
| 2026-04-27 23:13 | 22.29079 | 92.06909 | 24785 ft | 489 kts | 78° |
| 2026-04-27 23:14 | 22.29625 | 92.10538 | 24942 ft | 490 kts | 79° |
| 2026-04-27 23:14 | 22.30155 | 92.14175 | 25123 ft | 492 kts | 79° |
| 2026-04-27 23:14 | 22.30673 | 92.17828 | 25285 ft | 493 kts | 79° |
| 2026-04-27 23:14 | 22.31182 | 92.21492 | 25452 ft | 494 kts | 79° |
| 2026-04-27 23:15 | 22.31688 | 92.25166 | 25619 ft | 495 kts | 79° |
| 2026-04-27 23:15 | 22.32192 | 92.28845 | 25787 ft | 496 kts | 79° |
| 2026-04-27 23:15 | 22.32702 | 92.32548 | 25821 ft | 501 kts | 80° |
| 2026-04-27 23:15 | 22.33212 | 92.36283 | 25936 ft | 504 kts | 80° |
| 2026-04-27 23:16 | 22.33721 | 92.40030 | 26152 ft | 504 kts | 80° |
| 2026-04-27 23:16 | 22.34230 | 92.43776 | 26365 ft | 504 kts | 80° |
| 2026-04-27 23:16 | 22.34739 | 92.47525 | 26588 ft | 505 kts | 80° |
| 2026-04-27 23:16 | 22.35247 | 92.51279 | 26766 ft | 506 kts | 80° |
| 2026-04-27 23:17 | 22.35757 | 92.55042 | 26965 ft | 507 kts | 80° |
| 2026-04-27 23:17 | 22.36268 | 92.58814 | 27118 ft | 508 kts | 80° |
| 2026-04-27 23:17 | 22.36780 | 92.62601 | 27303 ft | 510 kts | 80° |
| 2026-04-27 23:17 | 22.37291 | 92.66388 | 27480 ft | 511 kts | 80° |
| 2026-04-27 23:18 | 22.37804 | 92.70193 | 27696 ft | 511 kts | 80° |
| 2026-04-27 23:18 | 22.38315 | 92.73995 | 27905 ft | 512 kts | 80° |
| 2026-04-27 23:18 | 22.38829 | 92.77800 | 28138 ft | 512 kts | 80° |
| 2026-04-27 23:18 | 22.39346 | 92.81608 | 28327 ft | 513 kts | 80° |
| 2026-04-27 23:19 | 22.39861 | 92.85424 | 28506 ft | 514 kts | 80° |
| 2026-04-27 23:19 | 22.40374 | 92.89246 | 28728 ft | 514 kts | 80° |
| 2026-04-27 23:19 | 22.40887 | 92.93076 | 28971 ft | 515 kts | 80° |
| 2026-04-27 23:19 | 22.41401 | 92.96912 | 29139 ft | 517 kts | 80° |
| 2026-04-27 23:20 | 22.41916 | 93.00758 | 29319 ft | 518 kts | 80° |
| 2026-04-27 23:20 | 22.42430 | 93.04613 | 29507 ft | 519 kts | 80° |
| 2026-04-27 23:20 | 22.42945 | 93.08477 | 29631 ft | 522 kts | 81° |
| 2026-04-27 23:20 | 22.43466 | 93.12383 | 29593 ft | 528 kts | 80° |
| 2026-04-27 23:21 | 22.43986 | 93.16315 | 29756 ft | 528 kts | 81° |
| 2026-04-27 23:21 | 22.44504 | 93.20242 | 29958 ft | 529 kts | 81° |
| 2026-04-27 23:21 | 22.45024 | 93.24179 | 30122 ft | 530 kts | 81° |
| 2026-04-27 23:21 | 22.45546 | 93.28127 | 30247 ft | 531 kts | 81° |
| 2026-04-27 23:22 | 22.46067 | 93.32077 | 30405 ft | 531 kts | 81° |
| 2026-04-27 23:22 | 22.46588 | 93.36039 | 30593 ft | 531 kts | 81° |
| 2026-04-27 23:22 | 22.47106 | 93.39994 | 30722 ft | 533 kts | 81° |
| 2026-04-27 23:22 | 22.47627 | 93.43970 | 30855 ft | 535 kts | 81° |
| 2026-04-27 23:23 | 22.48147 | 93.47949 | 31030 ft | 535 kts | 81° |
| 2026-04-27 23:23 | 22.48669 | 93.51936 | 31148 ft | 536 kts | 81° |
| 2026-04-27 23:23 | 22.49190 | 93.55933 | 31279 ft | 538 kts | 81° |
| 2026-04-27 23:23 | 22.49711 | 93.59940 | 31446 ft | 538 kts | 81° |
| 2026-04-27 23:24 | 22.50229 | 93.63935 | 31684 ft | 537 kts | 81° |
| 2026-04-27 23:24 | 22.50746 | 93.67929 | 31909 ft | 536 kts | 81° |
| 2026-04-27 23:24 | 22.51261 | 93.71914 | 32159 ft | 535 kts | 81° |
| 2026-04-27 23:24 | 22.51774 | 93.75892 | 32415 ft | 534 kts | 81° |
| 2026-04-27 23:25 | 22.52285 | 93.79862 | 32620 ft | 533 kts | 81° |
| 2026-04-27 23:25 | 22.52795 | 93.83842 | 32744 ft | 535 kts | 81° |
| 2026-04-27 23:25 | 22.53303 | 93.87814 | 33083 ft | 531 kts | 81° |
| 2026-04-27 23:25 | 22.53808 | 93.91761 | 33391 ft | 529 kts | 81° |
| 2026-04-27 23:26 | 22.54312 | 93.95705 | 33624 ft | 529 kts | 81° |
| 2026-04-27 23:26 | 22.54814 | 93.99644 | 33809 ft | 529 kts | 81° |
| 2026-04-27 23:26 | 22.55315 | 94.03578 | 34002 ft | 528 kts | 81° |
| 2026-04-27 23:26 | 22.55816 | 94.07518 | 34200 ft | 528 kts | 81° |
| 2026-04-27 23:27 | 22.56314 | 94.11449 | 34391 ft | 528 kts | 81° |
| 2026-04-27 23:27 | 22.56812 | 94.15391 | 34571 ft | 528 kts | 81° |
| 2026-04-27 23:27 | 22.57308 | 94.19322 | 34768 ft | 528 kts | 81° |
| 2026-04-27 23:27 | 22.57805 | 94.23269 | 34911 ft | 530 kts | 81° |
| 2026-04-27 23:28 | 22.58295 | 94.27163 | 35090 ft | 530 kts | 81° |
| 2026-04-27 23:28 | 22.58796 | 94.31157 | 35314 ft | 529 kts | 81° |
| 2026-04-27 23:28 | 22.59282 | 94.35050 | 35518 ft | 528 kts | 81° |
| 2026-04-27 23:28 | 22.59614 | 94.37707 | 35673 ft | 528 kts | 81° |
| 2026-04-27 23:29 | 22.60264 | 94.42918 | 35903 ft | 528 kts | 81° |
| 2026-04-27 23:29 | 22.60755 | 94.46863 | 36087 ft | 529 kts | 81° |
| 2026-04-27 23:29 | 22.61244 | 94.50802 | 36304 ft | 528 kts | 81° |
| 2026-04-27 23:29 | 22.61732 | 94.54739 | 36493 ft | 528 kts | 81° |
| 2026-04-27 23:30 | 22.62225 | 94.58733 | 36663 ft | 529 kts | 80° |
| 2026-04-27 23:30 | 22.62714 | 94.62691 | 36678 ft | 532 kts | 80° |
| 2026-04-27 23:30 | 22.63204 | 94.66663 | 36836 ft | 533 kts | 80° |
| 2026-04-27 23:30 | 22.63692 | 94.70638 | 37052 ft | 532 kts | 80° |
| 2026-04-27 23:31 | 22.64177 | 94.74597 | 37242 ft | 531 kts | 80° |
| 2026-04-27 23:31 | 22.64655 | 94.78512 | 37440 ft | 531 kts | 80° |
| 2026-04-27 23:31 | 22.64983 | 94.81192 | 37571 ft | 531 kts | 80° |
| 2026-04-27 23:31 | 22.65465 | 94.85148 | 37750 ft | 531 kts | 80° |
| 2026-04-27 23:32 | 22.66103 | 94.90396 | 37982 ft | 530 kts | 80° |
| 2026-04-27 23:32 | 22.66583 | 94.94352 | 38159 ft | 530 kts | 80° |
| 2026-04-27 23:32 | 22.66907 | 94.97027 | 38285 ft | 530 kts | 80° |
| 2026-04-27 23:32 | 22.67384 | 95.00978 | 38452 ft | 530 kts | 80° |
| 2026-04-27 23:33 | 22.67862 | 95.04937 | 38593 ft | 529 kts | 80° |
| 2026-04-27 23:33 | 22.68337 | 95.08887 | 38716 ft | 530 kts | 80° |
| 2026-04-27 23:33 | 22.69289 | 95.16813 | 38758 ft | 531 kts | 80° |
| 2026-04-27 23:34 | 22.70236 | 95.24743 | 38761 ft | 531 kts | 80° |
| 2026-04-27 23:34 | 22.71180 | 95.32672 | 38757 ft | 531 kts | 80° |
| 2026-04-27 23:35 | 22.72119 | 95.40602 | 38758 ft | 530 kts | 80° |
| 2026-04-27 23:35 | 22.73054 | 95.48521 | 38757 ft | 530 kts | 80° |
| 2026-04-27 23:36 | 22.73984 | 95.56443 | 38757 ft | 530 kts | 80° |
| 2026-04-27 23:36 | 22.74912 | 95.64371 | 38760 ft | 530 kts | 80° |
| 2026-04-27 23:37 | 22.75835 | 95.72296 | 38750 ft | 530 kts | 81° |
| 2026-04-27 23:37 | 22.76748 | 95.80186 | 38765 ft | 526 kts | 81° |
| 2026-04-27 23:38 | 22.77649 | 95.87991 | 38768 ft | 525 kts | 81° |
| 2026-04-27 23:38 | 22.78558 | 95.95891 | 38788 ft | 525 kts | 81° |
| 2026-04-27 23:39 | 22.79451 | 96.03692 | 38785 ft | 525 kts | 81° |
| 2026-04-27 23:39 | 22.80351 | 96.11591 | 38801 ft | 525 kts | 80° |
| 2026-04-27 23:40 | 22.81235 | 96.19385 | 38804 ft | 525 kts | 80° |
| 2026-04-27 23:40 | 22.82120 | 96.27227 | 38829 ft | 524 kts | 80° |
| 2026-04-27 23:41 | 22.83001 | 96.35062 | 38817 ft | 524 kts | 80° |
| 2026-04-27 23:41 | 22.83878 | 96.42899 | 38839 ft | 524 kts | 81° |
| 2026-04-27 23:42 | 22.84753 | 96.50743 | 38831 ft | 525 kts | 81° |
| 2026-04-27 23:42 | 22.85627 | 96.58604 | 38847 ft | 525 kts | 81° |
| 2026-04-27 23:43 | 22.86494 | 96.66469 | 38848 ft | 526 kts | 81° |
| 2026-04-27 23:43 | 22.87358 | 96.74340 | 38854 ft | 525 kts | 81° |
| 2026-04-27 23:44 | 22.88218 | 96.82203 | 38853 ft | 525 kts | 81° |
| 2026-04-27 23:44 | 22.89075 | 96.90069 | 38863 ft | 526 kts | 81° |
| 2026-04-27 23:45 | 22.89931 | 96.97956 | 38858 ft | 526 kts | 81° |
| 2026-04-27 23:45 | 22.90781 | 97.05838 | 38870 ft | 526 kts | 81° |
| 2026-04-27 23:46 | 22.91628 | 97.13726 | 38861 ft | 527 kts | 81° |
| 2026-04-27 23:46 | 22.92472 | 97.21618 | 38861 ft | 527 kts | 81° |
| 2026-04-27 23:47 | 22.93310 | 97.29513 | 38857 ft | 526 kts | 81° |
| 2026-04-27 23:47 | 22.94145 | 97.37405 | 38875 ft | 527 kts | 81° |
| 2026-04-27 23:48 | 22.94978 | 97.45311 | 38866 ft | 527 kts | 81° |
| 2026-04-27 23:48 | 22.95807 | 97.53216 | 38870 ft | 527 kts | 81° |
| 2026-04-27 23:49 | 22.96632 | 97.61117 | 38868 ft | 528 kts | 81° |
| 2026-04-27 23:49 | 22.97457 | 97.69058 | 38864 ft | 531 kts | 81° |
| 2026-04-27 23:50 | 22.98764 | 97.76906 | 38869 ft | 526 kts | 68° |
| 2026-04-27 23:50 | 23.01140 | 97.84405 | 38866 ft | 525 kts | 66° |
| 2026-04-27 23:51 | 23.03695 | 97.91827 | 38878 ft | 525 kts | 66° |
| 2026-04-27 23:51 | 23.06268 | 97.99244 | 38881 ft | 525 kts | 66° |
| 2026-04-27 23:52 | 23.08820 | 98.06675 | 38897 ft | 525 kts | 66° |
| 2026-04-27 23:52 | 23.11355 | 98.14107 | 38894 ft | 525 kts | 66° |
| 2026-04-27 23:53 | 23.13885 | 98.21550 | 38899 ft | 525 kts | 66° |
| 2026-04-27 23:53 | 23.16412 | 98.28993 | 38901 ft | 525 kts | 66° |
| 2026-04-27 23:54 | 23.18936 | 98.36439 | 38914 ft | 526 kts | 67° |
| 2026-04-27 23:54 | 23.21464 | 98.43902 | 38913 ft | 526 kts | 67° |
| 2026-04-27 23:55 | 23.23994 | 98.51391 | 38904 ft | 528 kts | 67° |
| 2026-04-27 23:55 | 23.26525 | 98.58895 | 38904 ft | 529 kts | 67° |
| 2026-04-27 23:56 | 23.29053 | 98.66411 | 38907 ft | 529 kts | 67° |
| 2026-04-27 23:56 | 23.31578 | 98.73918 | 38904 ft | 528 kts | 68° |
| 2026-04-27 23:57 | 23.34067 | 98.81341 | 38909 ft | 524 kts | 68° |
| 2026-04-27 23:57 | 23.36573 | 98.88828 | 38909 ft | 523 kts | 68° |
| 2026-04-27 23:58 | 23.39024 | 98.96273 | 38915 ft | 523 kts | 69° |
| 2026-04-27 23:58 | 23.41347 | 99.03738 | 38920 ft | 524 kts | 69° |
| 2026-04-27 23:59 | 23.43664 | 99.11247 | 38913 ft | 523 kts | 69° |
| 2026-04-27 23:59 | 23.45977 | 99.18707 | 38922 ft | 518 kts | 69° |
| 2026-04-28 00:00 | 23.48289 | 99.26133 | 38932 ft | 518 kts | 69° |
| 2026-04-28 00:00 | 23.50605 | 99.33579 | 38925 ft | 520 kts | 69° |
| 2026-04-28 00:01 | 23.53106 | 99.40957 | 38927 ft | 517 kts | 61° |
| 2026-04-28 00:01 | 23.56487 | 99.47849 | 38921 ft | 516 kts | 58° |
| 2026-04-28 00:02 | 23.60042 | 99.54662 | 38925 ft | 518 kts | 58° |
| 2026-04-28 00:02 | 23.63624 | 99.61471 | 38925 ft | 518 kts | 58° |
| 2026-04-28 00:03 | 23.67197 | 99.68303 | 38923 ft | 518 kts | 58° |
| 2026-04-28 00:03 | 23.70757 | 99.75143 | 38925 ft | 519 kts | 58° |
| 2026-04-28 00:04 | 23.76083 | 99.85404 | 38938 ft | 518 kts | 59° |
| 2026-04-28 00:05 | 23.79650 | 99.92280 | 38933 ft | 523 kts | 59° |
| 2026-04-28 00:05 | 23.83231 | 99.99195 | 38925 ft | 523 kts | 59° |
| 2026-04-28 00:06 | 23.86803 | 100.06108 | 38931 ft | 523 kts | 59° |
| 2026-04-28 00:06 | 23.90378 | 100.13039 | 38929 ft | 523 kts | 59° |
| 2026-04-28 00:07 | 23.93946 | 100.19966 | 38935 ft | 523 kts | 59° |
| 2026-04-28 00:07 | 23.97514 | 100.26901 | 38934 ft | 523 kts | 59° |
| 2026-04-28 00:08 | 24.01083 | 100.33840 | 38940 ft | 523 kts | 59° |
| 2026-04-28 00:08 | 24.04647 | 100.40783 | 38940 ft | 524 kts | 60° |
| 2026-04-28 00:09 | 24.08213 | 100.47748 | 38954 ft | 525 kts | 60° |
| 2026-04-28 00:09 | 24.11782 | 100.54727 | 38953 ft | 525 kts | 60° |
| 2026-04-28 00:10 | 24.15324 | 100.61712 | 38944 ft | 524 kts | 60° |
| 2026-04-28 00:10 | 24.18821 | 100.68706 | 38958 ft | 523 kts | 61° |
| 2026-04-28 00:11 | 24.22312 | 100.75697 | 38974 ft | 523 kts | 61° |
| 2026-04-28 00:11 | 24.25805 | 100.82685 | 38955 ft | 523 kts | 61° |
| 2026-04-28 00:12 | 24.29293 | 100.89673 | 38975 ft | 523 kts | 61° |
| 2026-04-28 00:12 | 24.32783 | 100.96674 | 38967 ft | 523 kts | 61° |
| 2026-04-28 00:13 | 24.36267 | 101.03676 | 38966 ft | 522 kts | 61° |
| 2026-04-28 00:13 | 24.39745 | 101.10670 | 38968 ft | 523 kts | 61° |
| 2026-04-28 00:14 | 24.42635 | 101.16491 | 38975 ft | 523 kts | 61° |
| 2026-04-28 00:14 | 24.46109 | 101.23497 | 38964 ft | 522 kts | 61° |
| 2026-04-28 00:15 | 24.49575 | 101.30498 | 38968 ft | 522 kts | 61° |
| 2026-04-28 00:15 | 24.53039 | 101.37505 | 38967 ft | 522 kts | 62° |
| 2026-04-28 00:16 | 24.56495 | 101.44508 | 38964 ft | 521 kts | 62° |
| 2026-04-28 00:16 | 24.59951 | 101.51519 | 38995 ft | 522 kts | 62° |
| 2026-04-28 00:17 | 24.63399 | 101.58534 | 38981 ft | 522 kts | 62° |
| 2026-04-28 00:17 | 24.66809 | 101.65579 | 38989 ft | 522 kts | 62° |
| 2026-04-28 00:18 | 24.70207 | 101.72634 | 38980 ft | 524 kts | 62° |
| 2026-04-28 00:18 | 24.73630 | 101.79737 | 38988 ft | 526 kts | 62° |
| 2026-04-28 00:19 | 24.77059 | 101.86855 | 39004 ft | 526 kts | 62° |
| 2026-04-28 00:19 | 24.80482 | 101.93972 | 39022 ft | 526 kts | 62° |
| 2026-04-28 00:20 | 24.83901 | 102.01090 | 39022 ft | 527 kts | 62° |
| 2026-04-28 00:20 | 24.87323 | 102.08229 | 39029 ft | 528 kts | 63° |
| 2026-04-28 00:21 | 24.90753 | 102.15398 | 39010 ft | 530 kts | 63° |
| 2026-04-28 00:21 | 24.94166 | 102.22539 | 39042 ft | 531 kts | 63° |
| 2026-04-28 00:22 | 24.97603 | 102.29738 | 39042 ft | 530 kts | 63° |
| 2026-04-28 00:22 | 25.01030 | 102.36931 | 39058 ft | 530 kts | 63° |
| 2026-04-28 00:23 | 25.04263 | 102.44227 | 39057 ft | 529 kts | 71° |
| 2026-04-28 00:23 | 25.05666 | 102.52117 | 39064 ft | 524 kts | 92° |
| 2026-04-28 00:23 | 25.05417 | 102.56105 | 39072 ft | 519 kts | 103° |
| 2026-04-28 00:24 | 25.04537 | 102.59931 | 39076 ft | 513 kts | 114° |
| 2026-04-28 00:24 | 25.01656 | 102.67076 | 39088 ft | 510 kts | 120° |
| 2026-04-28 00:25 | 24.98497 | 102.74068 | 39091 ft | 509 kts | 121° |
| 2026-04-28 00:25 | 24.95332 | 102.81051 | 39090 ft | 509 kts | 121° |
| 2026-04-28 00:26 | 24.92200 | 102.88047 | 39093 ft | 509 kts | 120° |
| 2026-04-28 00:26 | 24.89119 | 102.95062 | 39087 ft | 509 kts | 120° |
| 2026-04-28 00:27 | 24.86057 | 103.02093 | 39081 ft | 509 kts | 120° |
| 2026-04-28 00:27 | 24.82989 | 103.09119 | 39068 ft | 509 kts | 120° |
| 2026-04-28 00:28 | 24.79913 | 103.16130 | 39051 ft | 508 kts | 120° |
| 2026-04-28 00:28 | 24.76839 | 103.23123 | 39049 ft | 507 kts | 120° |
| 2026-04-28 00:29 | 24.73768 | 103.30095 | 39050 ft | 507 kts | 120° |
| 2026-04-28 00:29 | 24.70692 | 103.37069 | 39045 ft | 507 kts | 120° |
| 2026-04-28 00:30 | 24.67610 | 103.44048 | 39044 ft | 507 kts | 120° |
| 2026-04-28 00:30 | 24.64529 | 103.51013 | 39026 ft | 507 kts | 121° |
| 2026-04-28 00:31 | 24.61472 | 103.57916 | 39027 ft | 504 kts | 121° |
| 2026-04-28 00:31 | 24.58400 | 103.64840 | 39015 ft | 504 kts | 121° |
| 2026-04-28 00:32 | 24.55340 | 103.71760 | 39012 ft | 505 kts | 119° |
| 2026-04-28 00:32 | 24.53154 | 103.79143 | 39003 ft | 512 kts | 108° |
| 2026-04-28 00:33 | 24.51481 | 103.86755 | 39002 ft | 513 kts | 107° |
| 2026-04-28 00:33 | 24.49884 | 103.94412 | 38996 ft | 515 kts | 107° |
| 2026-04-28 00:34 | 24.48270 | 104.02082 | 38996 ft | 516 kts | 107° |
| 2026-04-28 00:34 | 24.46635 | 104.09746 | 38981 ft | 516 kts | 107° |
| 2026-04-28 00:35 | 24.44990 | 104.17407 | 38978 ft | 516 kts | 107° |
| 2026-04-28 00:35 | 24.43341 | 104.25068 | 38957 ft | 516 kts | 107° |
| 2026-04-28 00:36 | 24.41686 | 104.32739 | 38965 ft | 517 kts | 107° |
| 2026-04-28 00:36 | 24.40026 | 104.40411 | 38946 ft | 516 kts | 107° |
| 2026-04-28 00:37 | 24.38364 | 104.48076 | 38944 ft | 517 kts | 107° |
| 2026-04-28 00:37 | 24.36714 | 104.55666 | 38931 ft | 516 kts | 108° |
| 2026-04-28 00:38 | 24.35047 | 104.63311 | 38933 ft | 515 kts | 108° |
| 2026-04-28 00:38 | 24.33374 | 104.70956 | 38917 ft | 516 kts | 108° |
| 2026-04-28 00:39 | 24.31699 | 104.78600 | 38908 ft | 515 kts | 108° |
| 2026-04-28 00:39 | 24.30021 | 104.86235 | 38916 ft | 515 kts | 108° |
| 2026-04-28 00:40 | 24.28339 | 104.93873 | 38892 ft | 515 kts | 108° |
| 2026-04-28 00:40 | 24.26653 | 105.01502 | 38903 ft | 515 kts | 108° |
| 2026-04-28 00:41 | 24.24965 | 105.09128 | 38899 ft | 514 kts | 108° |
| 2026-04-28 00:41 | 24.23275 | 105.16744 | 38892 ft | 514 kts | 108° |
| 2026-04-28 00:42 | 24.21577 | 105.24345 | 38899 ft | 514 kts | 108° |
| 2026-04-28 00:42 | 24.19760 | 105.31905 | 38893 ft | 513 kts | 109° |
| 2026-04-28 00:43 | 24.17898 | 105.39447 | 38890 ft | 513 kts | 109° |
| 2026-04-28 00:43 | 24.16049 | 105.46991 | 38889 ft | 513 kts | 109° |
| 2026-04-28 00:44 | 24.14206 | 105.54538 | 38891 ft | 513 kts | 108° |
| 2026-04-28 00:44 | 24.12371 | 105.62075 | 38895 ft | 512 kts | 108° |
| 2026-04-28 00:45 | 24.10532 | 105.69611 | 38883 ft | 512 kts | 108° |
| 2026-04-28 00:45 | 24.08854 | 105.77203 | 38883 ft | 514 kts | 105° |
| 2026-04-28 00:46 | 24.07407 | 105.84868 | 38876 ft | 514 kts | 104° |
| 2026-04-28 00:46 | 24.05948 | 105.92532 | 38872 ft | 514 kts | 105° |
| 2026-04-28 00:47 | 24.04445 | 106.00172 | 38873 ft | 514 kts | 105° |
| 2026-04-28 00:47 | 24.02917 | 106.07816 | 38868 ft | 514 kts | 104° |
| 2026-04-28 00:48 | 24.01383 | 106.15461 | 38868 ft | 515 kts | 104° |
| 2026-04-28 00:48 | 23.99852 | 106.23084 | 38854 ft | 515 kts | 104° |
| 2026-04-28 00:49 | 23.98322 | 106.30684 | 38868 ft | 515 kts | 105° |
| 2026-04-28 00:49 | 23.96779 | 106.38329 | 38861 ft | 515 kts | 104° |
| 2026-04-28 00:50 | 23.95232 | 106.45973 | 38862 ft | 515 kts | 104° |
| 2026-04-28 00:50 | 23.93669 | 106.53673 | 38859 ft | 515 kts | 104° |
| 2026-04-28 00:51 | 23.92353 | 106.61322 | 38862 ft | 517 kts | 97° |
| 2026-04-28 00:51 | 23.91720 | 106.69148 | 38857 ft | 517 kts | 95° |
| 2026-04-28 00:52 | 23.91208 | 106.76994 | 38856 ft | 518 kts | 95° |
| 2026-04-28 00:52 | 23.90707 | 106.84842 | 38856 ft | 518 kts | 95° |
| 2026-04-28 00:53 | 23.90190 | 106.92688 | 38856 ft | 518 kts | 95° |
| 2026-04-28 00:53 | 23.89659 | 107.00539 | 38857 ft | 518 kts | 95° |
| 2026-04-28 00:54 | 23.89121 | 107.08388 | 38852 ft | 518 kts | 94° |
| 2026-04-28 00:54 | 23.88582 | 107.16216 | 38852 ft | 517 kts | 94° |
| 2026-04-28 00:55 | 23.88041 | 107.24048 | 38854 ft | 517 kts | 94° |
| 2026-04-28 00:55 | 23.87494 | 107.31878 | 38854 ft | 517 kts | 94° |
| 2026-04-28 00:56 | 23.86943 | 107.39712 | 38858 ft | 517 kts | 94° |
| 2026-04-28 00:56 | 23.86389 | 107.47533 | 38858 ft | 516 kts | 94° |
| 2026-04-28 00:57 | 23.85833 | 107.55337 | 38858 ft | 515 kts | 94° |
| 2026-04-28 00:57 | 23.85274 | 107.63132 | 38860 ft | 515 kts | 95° |
| 2026-04-28 00:58 | 23.84805 | 107.69612 | 38859 ft | 515 kts | 94° |
| 2026-04-28 00:58 | 23.84238 | 107.77410 | 38859 ft | 515 kts | 95° |
| 2026-04-28 00:59 | 23.83666 | 107.85224 | 38859 ft | 517 kts | 95° |
| 2026-04-28 00:59 | 23.83206 | 107.93058 | 38856 ft | 517 kts | 93° |
| 2026-04-28 01:00 | 23.82848 | 108.00903 | 38861 ft | 517 kts | 93° |
| 2026-04-28 01:00 | 23.82476 | 108.08752 | 38860 ft | 517 kts | 93° |
| 2026-04-28 01:01 | 23.82079 | 108.16595 | 38865 ft | 518 kts | 93° |
| 2026-04-28 01:01 | 23.81658 | 108.24441 | 38858 ft | 517 kts | 94° |
| 2026-04-28 01:02 | 23.81211 | 108.32274 | 38859 ft | 517 kts | 94° |
| 2026-04-28 01:02 | 23.80761 | 108.40115 | 38854 ft | 517 kts | 94° |
| 2026-04-28 01:03 | 23.80315 | 108.47939 | 38857 ft | 514 kts | 95° |
| 2026-04-28 01:03 | 23.79867 | 108.55715 | 38861 ft | 512 kts | 95° |
| 2026-04-28 01:04 | 23.79417 | 108.63459 | 38859 ft | 511 kts | 95° |
| 2026-04-28 01:04 | 23.78963 | 108.71213 | 38860 ft | 512 kts | 95° |
| 2026-04-28 01:05 | 23.78506 | 108.78966 | 38859 ft | 511 kts | 95° |
| 2026-04-28 01:05 | 23.78052 | 108.86629 | 38860 ft | 507 kts | 95° |
| 2026-04-28 01:06 | 23.77590 | 108.94304 | 38856 ft | 506 kts | 95° |
| 2026-04-28 01:06 | 23.77126 | 109.01975 | 38858 ft | 506 kts | 95° |
| 2026-04-28 01:07 | 23.76657 | 109.09641 | 38859 ft | 506 kts | 95° |
| 2026-04-28 01:07 | 23.75789 | 109.17249 | 38860 ft | 505 kts | 102° |
| 2026-04-28 01:08 | 23.74358 | 109.24766 | 38858 ft | 506 kts | 104° |
| 2026-04-28 01:08 | 23.72833 | 109.32263 | 38862 ft | 506 kts | 104° |
| 2026-04-28 01:09 | 23.71301 | 109.39758 | 38864 ft | 506 kts | 104° |
| 2026-04-28 01:09 | 23.69777 | 109.47251 | 38864 ft | 506 kts | 104° |
| 2026-04-28 01:10 | 23.68252 | 109.54759 | 38870 ft | 507 kts | 104° |
| 2026-04-28 01:10 | 23.66725 | 109.62266 | 38870 ft | 507 kts | 104° |
| 2026-04-28 01:11 | 23.65189 | 109.69781 | 38878 ft | 507 kts | 104° |
| 2026-04-28 01:11 | 23.63633 | 109.77287 | 38879 ft | 507 kts | 104° |
| 2026-04-28 01:12 | 23.62073 | 109.84800 | 38887 ft | 509 kts | 104° |
| 2026-04-28 01:12 | 23.60505 | 109.92351 | 38885 ft | 511 kts | 104° |
| 2026-04-28 01:13 | 23.58935 | 109.99906 | 38889 ft | 511 kts | 104° |
| 2026-04-28 01:13 | 23.56569 | 110.11243 | 38897 ft | 511 kts | 104° |
| 2026-04-28 01:14 | 23.54985 | 110.18811 | 38898 ft | 514 kts | 104° |
| 2026-04-28 01:14 | 23.53387 | 110.26421 | 38897 ft | 516 kts | 104° |
| 2026-04-28 01:15 | 23.51784 | 110.34042 | 38900 ft | 516 kts | 104° |
| 2026-04-28 01:15 | 23.50198 | 110.41663 | 38901 ft | 516 kts | 104° |
| 2026-04-28 01:16 | 23.48655 | 110.49297 | 38899 ft | 516 kts | 104° |
| 2026-04-28 01:16 | 23.47107 | 110.56948 | 38900 ft | 518 kts | 104° |
| 2026-04-28 01:17 | 23.45546 | 110.64607 | 38900 ft | 518 kts | 104° |
| 2026-04-28 01:17 | 23.43978 | 110.72262 | 38900 ft | 518 kts | 104° |
| 2026-04-28 01:18 | 23.42387 | 110.79915 | 38903 ft | 518 kts | 105° |
| 2026-04-28 01:18 | 23.40764 | 110.87552 | 38905 ft | 519 kts | 105° |
| 2026-04-28 01:19 | 23.39134 | 110.95214 | 38906 ft | 519 kts | 105° |
| 2026-04-28 01:19 | 23.37507 | 111.02875 | 38906 ft | 520 kts | 105° |
| 2026-04-28 01:20 | 23.35879 | 111.10534 | 38908 ft | 520 kts | 105° |
| 2026-04-28 01:20 | 23.34266 | 111.18152 | 38911 ft | 521 kts | 104° |
| 2026-04-28 01:21 | 23.32692 | 111.25857 | 38913 ft | 522 kts | 104° |
| 2026-04-28 01:21 | 23.31126 | 111.33571 | 38914 ft | 522 kts | 104° |
| 2026-04-28 01:22 | 23.29548 | 111.41291 | 38917 ft | 523 kts | 104° |
| 2026-04-28 01:22 | 23.27960 | 111.49004 | 38914 ft | 522 kts | 104° |
| 2026-04-28 01:23 | 23.26369 | 111.56707 | 38919 ft | 522 kts | 105° |
| 2026-04-28 01:23 | 23.24741 | 111.64402 | 38919 ft | 522 kts | 105° |
| 2026-04-28 01:24 | 23.23098 | 111.72100 | 38923 ft | 522 kts | 105° |
| 2026-04-28 01:24 | 23.21461 | 111.79785 | 38920 ft | 522 kts | 105° |
| 2026-04-28 01:25 | 23.19832 | 111.87494 | 38928 ft | 524 kts | 105° |
| 2026-04-28 01:25 | 23.18229 | 111.95223 | 38936 ft | 525 kts | 105° |
| 2026-04-28 01:26 | 23.16624 | 112.02960 | 38928 ft | 524 kts | 105° |
| 2026-04-28 01:26 | 23.15010 | 112.10693 | 38933 ft | 524 kts | 105° |
| 2026-04-28 01:27 | 23.13393 | 112.18416 | 38933 ft | 525 kts | 106° |
| 2026-04-28 01:27 | 23.11764 | 112.26164 | 38936 ft | 526 kts | 106° |
| 2026-04-28 01:28 | 23.10133 | 112.33912 | 38933 ft | 526 kts | 106° |
| 2026-04-28 01:28 | 23.08495 | 112.41671 | 38937 ft | 527 kts | 106° |
| 2026-04-28 01:29 | 23.07061 | 112.49469 | 38938 ft | 530 kts | 98° |
| 2026-04-28 01:29 | 23.06388 | 112.57459 | 38938 ft | 532 kts | 97° |
| 2026-04-28 01:30 | 23.05856 | 112.65460 | 38937 ft | 532 kts | 96° |
| 2026-04-28 01:30 | 23.05338 | 112.73477 | 38939 ft | 532 kts | 96° |
| 2026-04-28 01:31 | 23.04800 | 112.81482 | 38938 ft | 532 kts | 97° |
| 2026-04-28 01:31 | 23.04268 | 112.89242 | 38936 ft | 533 kts | 97° |
| 2026-04-28 01:32 | 23.03711 | 112.97264 | 38938 ft | 533 kts | 97° |
| 2026-04-28 01:32 | 23.03142 | 113.05276 | 38933 ft | 532 kts | 98° |
| 2026-04-28 01:33 | 23.01391 | 113.12982 | 38930 ft | 522 kts | 117° |
| 2026-04-28 01:33 | 22.99695 | 113.16434 | 38934 ft | 516 kts | 128° |
| 2026-04-28 01:33 | 22.97496 | 113.19468 | 38936 ft | 508 kts | 139° |
| 2026-04-28 01:34 | 22.92334 | 113.23741 | 38932 ft | 493 kts | 158° |
| 2026-04-28 01:34 | 22.86147 | 113.26010 | 38934 ft | 477 kts | 176° |
| 2026-04-28 01:35 | 22.79596 | 113.27115 | 38930 ft | 482 kts | 171° |
| 2026-04-28 01:35 | 22.73125 | 113.29099 | 38930 ft | 484 kts | 168° |
| 2026-04-28 01:36 | 22.66686 | 113.31287 | 38934 ft | 485 kts | 168° |
| 2026-04-28 01:36 | 22.60262 | 113.33532 | 38932 ft | 485 kts | 168° |
| 2026-04-28 01:37 | 22.53830 | 113.35772 | 38928 ft | 486 kts | 168° |
| 2026-04-28 01:37 | 22.47387 | 113.37997 | 38937 ft | 486 kts | 168° |
| 2026-04-28 01:38 | 22.40942 | 113.40217 | 38930 ft | 486 kts | 168° |
| 2026-04-28 01:38 | 22.34504 | 113.42434 | 38930 ft | 486 kts | 168° |
| 2026-04-28 01:39 | 22.28054 | 113.44655 | 38917 ft | 487 kts | 168° |
| 2026-04-28 01:39 | 22.22644 | 113.46515 | 38936 ft | 488 kts | 168° |
| 2026-04-28 01:40 | 22.15149 | 113.49223 | 38938 ft | 489 kts | 166° |
| 2026-04-28 01:40 | 22.08704 | 113.51599 | 38939 ft | 489 kts | 166° |
| 2026-04-28 01:41 | 22.02260 | 113.53962 | 38939 ft | 489 kts | 166° |
| 2026-04-28 01:41 | 21.95840 | 113.56404 | 38929 ft | 492 kts | 162° |
| 2026-04-28 01:42 | 21.90579 | 113.58890 | 38934 ft | 493 kts | 161° |
| 2026-04-28 01:42 | 21.84302 | 113.61843 | 38934 ft | 492 kts | 162° |
| 2026-04-28 01:43 | 21.78010 | 113.64756 | 38936 ft | 492 kts | 162° |
| 2026-04-28 01:43 | 21.71750 | 113.67636 | 38936 ft | 492 kts | 162° |
| 2026-04-28 01:44 | 21.65888 | 113.71499 | 38939 ft | 508 kts | 138° |
| 2026-04-28 01:44 | 21.63739 | 113.74541 | 38939 ft | 517 kts | 123° |
| 2026-04-28 01:44 | 21.62355 | 113.78124 | 38934 ft | 524 kts | 107° |
| 2026-04-28 01:45 | 21.61841 | 113.82003 | 38939 ft | 528 kts | 91° |
| 2026-04-28 01:45 | 21.62241 | 113.85930 | 38951 ft | 530 kts | 76° |
| 2026-04-28 01:45 | 21.63530 | 113.89634 | 38958 ft | 530 kts | 60° |
| 2026-04-28 01:45 | 21.65622 | 113.92868 | 38956 ft | 527 kts | 44° |
| 2026-04-28 01:46 | 21.68374 | 113.95423 | 38940 ft | 520 kts | 29° |
| 2026-04-28 01:46 | 21.71582 | 113.97126 | 38947 ft | 511 kts | 13° |
| 2026-04-28 01:46 | 21.75024 | 113.97880 | 38953 ft | 501 kts | 358° |
| 2026-04-28 01:46 | 21.78443 | 113.97659 | 38954 ft | 485 kts | 342° |
| 2026-04-28 01:47 | 21.81588 | 113.96501 | 38955 ft | 474 kts | 327° |
| 2026-04-28 01:47 | 21.84263 | 113.94504 | 38958 ft | 465 kts | 311° |
| 2026-04-28 01:47 | 21.89072 | 113.89806 | 38939 ft | 471 kts | 317° |
| 2026-04-28 01:48 | 21.94665 | 113.85994 | 38946 ft | 479 kts | 326° |
| 2026-04-28 01:48 | 22.00621 | 113.82728 | 38942 ft | 481 kts | 328° |
| 2026-04-28 01:49 | 22.06672 | 113.79623 | 38940 ft | 482 kts | 329° |
| 2026-04-28 01:49 | 22.12954 | 113.77062 | 38944 ft | 495 kts | 347° |
| 2026-04-28 01:50 | 22.19857 | 113.76482 | 38937 ft | 499 kts | 351° |
| 2026-04-28 01:50 | 22.26726 | 113.75679 | 38936 ft | 496 kts | 346° |
| 2026-04-28 01:51 | 22.30211 | 113.75668 | 38945 ft | 508 kts | 3° |
| 2026-04-28 01:51 | 22.33658 | 113.76647 | 38940 ft | 518 kts | 18° |
| 2026-04-28 01:51 | 22.36819 | 113.78550 | 38937 ft | 526 kts | 33° |
| 2026-04-28 01:51 | 22.39496 | 113.81278 | 38941 ft | 533 kts | 49° |
| 2026-04-28 01:52 | 22.41496 | 113.84653 | 38940 ft | 536 kts | 64° |
| 2026-04-28 01:52 | 22.42692 | 113.88461 | 38940 ft | 536 kts | 79° |
| 2026-04-28 01:52 | 22.43008 | 113.92461 | 38940 ft | 534 kts | 95° |
| 2026-04-28 01:52 | 22.42626 | 113.96440 | 38933 ft | 533 kts | 97° |
| 2026-04-28 01:53 | 22.42815 | 114.00437 | 38939 ft | 537 kts | 79° |
| 2026-04-28 01:53 | 22.43920 | 114.04287 | 38941 ft | 536 kts | 64° |
| 2026-04-28 01:53 | 22.45840 | 114.07714 | 38950 ft | 533 kts | 49° |
| 2026-04-28 01:53 | 22.47911 | 114.11045 | 38950 ft | 536 kts | 63° |
| 2026-04-28 01:54 | 22.50552 | 114.18595 | 38957 ft | 539 kts | 66° |
| 2026-04-28 01:54 | 22.51594 | 114.22479 | 38961 ft | 539 kts | 82° |
| 2026-04-28 01:54 | 22.51727 | 114.26511 | 38956 ft | 534 kts | 98° |
| 2026-04-28 01:55 | 22.50962 | 114.30403 | 38956 ft | 528 kts | 113° |
| 2026-04-28 01:55 | 22.49362 | 114.33929 | 38957 ft | 519 kts | 128° |
| 2026-04-28 01:55 | 22.47047 | 114.36854 | 38956 ft | 508 kts | 144° |
| 2026-04-28 01:55 | 22.44186 | 114.38999 | 38955 ft | 495 kts | 159° |
| 2026-04-28 01:56 | 22.41034 | 114.40223 | 38950 ft | 483 kts | 174° |
| 2026-04-28 01:56 | 22.37685 | 114.40516 | 38964 ft | 474 kts | 188° |
| 2026-04-28 01:56 | 22.31291 | 114.39412 | 38959 ft | 460 kts | 208° |
| 2026-04-28 01:57 | 22.28603 | 114.37636 | 38956 ft | 449 kts | 224° |
| 2026-04-28 01:57 | 22.26540 | 114.35156 | 38956 ft | 442 kts | 239° |
| 2026-04-28 01:57 | 22.23163 | 114.29656 | 38954 ft | 445 kts | 234° |
| 2026-04-28 01:58 | 22.19037 | 114.24649 | 38951 ft | 448 kts | 228° |
| 2026-04-28 01:58 | 22.14917 | 114.19660 | 38968 ft | 444 kts | 243° |
| 2026-04-28 01:59 | 22.12198 | 114.13707 | 38947 ft | 444 kts | 244° |
| 2026-04-28 01:59 | 22.09359 | 114.07789 | 38949 ft | 444 kts | 243° |
| 2026-04-28 02:00 | 22.06419 | 114.01932 | 38951 ft | 444 kts | 242° |
| 2026-04-28 02:00 | 22.03444 | 113.96095 | 38947 ft | 444 kts | 242° |
| 2026-04-28 02:01 | 22.00029 | 113.90533 | 38952 ft | 445 kts | 238° |
| 2026-04-28 02:01 | 21.96698 | 113.84916 | 38947 ft | 445 kts | 239° |
| 2026-04-28 02:02 | 21.93498 | 113.79217 | 38946 ft | 445 kts | 240° |
| 2026-04-28 02:02 | 21.90427 | 113.73425 | 38950 ft | 446 kts | 242° |
| 2026-04-28 02:03 | 21.87475 | 113.67553 | 38949 ft | 446 kts | 243° |
| 2026-04-28 02:03 | 21.84639 | 113.61621 | 38934 ft | 446 kts | 244° |
| 2026-04-28 02:04 | 21.81920 | 113.55624 | 38933 ft | 446 kts | 245° |
| 2026-04-28 02:04 | 21.79326 | 113.49569 | 38932 ft | 445 kts | 246° |
| 2026-04-28 02:05 | 21.76859 | 113.43456 | 38933 ft | 445 kts | 247° |
| 2026-04-28 02:05 | 21.74524 | 113.37290 | 38941 ft | 444 kts | 249° |
| 2026-04-28 02:06 | 21.72343 | 113.31078 | 38939 ft | 444 kts | 250° |
| 2026-04-28 02:06 | 21.70326 | 113.24802 | 38940 ft | 444 kts | 251° |
| 2026-04-28 02:07 | 21.68470 | 113.18461 | 38939 ft | 445 kts | 253° |
| 2026-04-28 02:07 | 21.66752 | 113.12064 | 38942 ft | 446 kts | 254° |
| 2026-04-28 02:08 | 21.65167 | 113.05627 | 38950 ft | 445 kts | 255° |
| 2026-04-28 02:08 | 21.63735 | 112.99166 | 38937 ft | 444 kts | 256° |
| 2026-04-28 02:09 | 21.62464 | 112.92668 | 38939 ft | 444 kts | 258° |
| 2026-04-28 02:09 | 21.61352 | 112.86129 | 38941 ft | 445 kts | 259° |
| 2026-04-28 02:10 | 21.60399 | 112.79568 | 38936 ft | 445 kts | 261° |
| 2026-04-28 02:10 | 21.59602 | 112.73020 | 38936 ft | 443 kts | 262° |
| 2026-04-28 02:11 | 21.58979 | 112.66397 | 38941 ft | 442 kts | 263° |
| 2026-04-28 02:11 | 21.58567 | 112.59799 | 38941 ft | 443 kts | 265° |
| 2026-04-28 02:12 | 21.58360 | 112.53227 | 38938 ft | 443 kts | 267° |
| 2026-04-28 02:12 | 21.58344 | 112.46600 | 38938 ft | 444 kts | 268° |
| 2026-04-28 02:13 | 21.58510 | 112.39973 | 38941 ft | 444 kts | 270° |
| 2026-04-28 02:13 | 21.58856 | 112.33350 | 38941 ft | 444 kts | 271° |
| 2026-04-28 02:14 | 21.59375 | 112.26740 | 38935 ft | 444 kts | 273° |
| 2026-04-28 02:14 | 21.60057 | 112.20132 | 38936 ft | 445 kts | 274° |
| 2026-04-28 02:15 | 21.61358 | 112.10251 | 38943 ft | 446 kts | 276° |
| 2026-04-28 02:16 | 21.62393 | 112.03677 | 38939 ft | 447 kts | 277° |
| 2026-04-28 02:16 | 21.63538 | 111.97109 | 38937 ft | 447 kts | 278° |
| 2026-04-28 02:17 | 21.64780 | 111.90558 | 38943 ft | 447 kts | 278° |
| 2026-04-28 02:17 | 21.66111 | 111.84021 | 38942 ft | 448 kts | 279° |
| 2026-04-28 02:18 | 21.67523 | 111.77496 | 38946 ft | 448 kts | 280° |
| 2026-04-28 02:18 | 21.69003 | 111.70974 | 38946 ft | 450 kts | 281° |
| 2026-04-28 02:19 | 21.70525 | 111.64452 | 38941 ft | 450 kts | 281° |
| 2026-04-28 02:19 | 21.72069 | 111.57933 | 38941 ft | 450 kts | 281° |
| 2026-04-28 02:20 | 21.73645 | 111.51418 | 38942 ft | 450 kts | 282° |
| 2026-04-28 02:20 | 21.75250 | 111.44915 | 38941 ft | 450 kts | 282° |
| 2026-04-28 02:21 | 21.76885 | 111.38419 | 38941 ft | 450 kts | 282° |
| 2026-04-28 02:21 | 21.78548 | 111.31926 | 38944 ft | 450 kts | 282° |
| 2026-04-28 02:22 | 21.80237 | 111.25441 | 38939 ft | 450 kts | 283° |
| 2026-04-28 02:22 | 21.81948 | 111.18957 | 38943 ft | 450 kts | 283° |
| 2026-04-28 02:23 | 21.83676 | 111.12475 | 38940 ft | 451 kts | 283° |
| 2026-04-28 02:23 | 21.85419 | 111.05999 | 38938 ft | 450 kts | 283° |
| 2026-04-28 02:24 | 21.87173 | 110.99533 | 38932 ft | 451 kts | 283° |
| 2026-04-28 02:24 | 21.88944 | 110.93056 | 38932 ft | 451 kts | 283° |
| 2026-04-28 02:25 | 21.90434 | 110.87625 | 38930 ft | 451 kts | 283° |
| 2026-04-28 02:25 | 21.92216 | 110.81153 | 38929 ft | 451 kts | 284° |
| 2026-04-28 02:26 | 21.94004 | 110.74679 | 38928 ft | 451 kts | 284° |
| 2026-04-28 02:26 | 21.95799 | 110.68208 | 38916 ft | 451 kts | 284° |
| 2026-04-28 02:27 | 21.97591 | 110.61787 | 38921 ft | 451 kts | 284° |
| 2026-04-28 02:27 | 21.99407 | 110.55324 | 38921 ft | 451 kts | 284° |
| 2026-04-28 02:28 | 22.01231 | 110.48862 | 38917 ft | 451 kts | 284° |
| 2026-04-28 02:28 | 22.03060 | 110.42399 | 38920 ft | 450 kts | 284° |
| 2026-04-28 02:29 | 22.04903 | 110.35949 | 38916 ft | 450 kts | 284° |
| 2026-04-28 02:29 | 22.06770 | 110.29505 | 38920 ft | 450 kts | 285° |
| 2026-04-28 02:30 | 22.08660 | 110.23078 | 38922 ft | 450 kts | 285° |
| 2026-04-28 02:30 | 22.10576 | 110.16648 | 38916 ft | 450 kts | 285° |
| 2026-04-28 02:31 | 22.12511 | 110.10220 | 38918 ft | 450 kts | 285° |
| 2026-04-28 02:31 | 22.14462 | 110.03811 | 38909 ft | 450 kts | 286° |
| 2026-04-28 02:32 | 22.16445 | 109.97408 | 38912 ft | 451 kts | 286° |
| 2026-04-28 02:32 | 22.18447 | 109.90987 | 38910 ft | 452 kts | 286° |
| 2026-04-28 02:33 | 22.20433 | 109.84543 | 38910 ft | 452 kts | 285° |
| 2026-04-28 02:33 | 22.22392 | 109.78092 | 38905 ft | 453 kts | 285° |
| 2026-04-28 02:34 | 22.24314 | 109.71586 | 38902 ft | 457 kts | 284° |
| 2026-04-28 02:34 | 22.26125 | 109.65003 | 38902 ft | 457 kts | 283° |
| 2026-04-28 02:35 | 22.27795 | 109.58386 | 38898 ft | 457 kts | 282° |
| 2026-04-28 02:35 | 22.29335 | 109.51735 | 38894 ft | 456 kts | 281° |
| 2026-04-28 02:36 | 22.30742 | 109.45102 | 38893 ft | 456 kts | 280° |
| 2026-04-28 02:36 | 22.32033 | 109.38364 | 38886 ft | 459 kts | 279° |
| 2026-04-28 02:37 | 22.33141 | 109.31566 | 38887 ft | 460 kts | 277° |
| 2026-04-28 02:37 | 22.34044 | 109.24734 | 38880 ft | 459 kts | 275° |
| 2026-04-28 02:38 | 22.34746 | 109.17873 | 38879 ft | 459 kts | 274° |
| 2026-04-28 02:38 | 22.35254 | 109.11001 | 38877 ft | 459 kts | 272° |
| 2026-04-28 02:39 | 22.35571 | 109.04116 | 38876 ft | 459 kts | 271° |
| 2026-04-28 02:39 | 22.35702 | 108.97223 | 38868 ft | 459 kts | 269° |
| 2026-04-28 02:40 | 22.35646 | 108.90337 | 38868 ft | 459 kts | 268° |
| 2026-04-28 02:40 | 22.35410 | 108.83456 | 38864 ft | 458 kts | 266° |
| 2026-04-28 02:41 | 22.35000 | 108.76582 | 38864 ft | 458 kts | 265° |
| 2026-04-28 02:41 | 22.34421 | 108.69728 | 38860 ft | 459 kts | 263° |
| 2026-04-28 02:42 | 22.33653 | 108.62874 | 38863 ft | 460 kts | 262° |
| 2026-04-28 02:42 | 22.32687 | 108.56060 | 38846 ft | 459 kts | 260° |
| 2026-04-28 02:43 | 22.31558 | 108.49321 | 38856 ft | 453 kts | 259° |
| 2026-04-28 02:43 | 22.30369 | 108.42646 | 38855 ft | 452 kts | 259° |
| 2026-04-28 02:44 | 22.29157 | 108.35988 | 38848 ft | 452 kts | 258° |
| 2026-04-28 02:44 | 22.27923 | 108.29331 | 38852 ft | 452 kts | 258° |
| 2026-04-28 02:45 | 22.26668 | 108.22680 | 38851 ft | 452 kts | 258° |
| 2026-04-28 02:45 | 22.25397 | 108.16042 | 38853 ft | 452 kts | 258° |
| 2026-04-28 02:46 | 22.24109 | 108.09402 | 38850 ft | 452 kts | 258° |
| 2026-04-28 02:46 | 22.22808 | 108.02768 | 38846 ft | 452 kts | 258° |
| 2026-04-28 02:47 | 22.21494 | 107.96136 | 38853 ft | 452 kts | 257° |
| 2026-04-28 02:47 | 22.20169 | 107.89516 | 38851 ft | 452 kts | 257° |
| 2026-04-28 02:48 | 22.18831 | 107.82890 | 38848 ft | 452 kts | 257° |
| 2026-04-28 02:48 | 22.17486 | 107.76273 | 38845 ft | 451 kts | 257° |
| 2026-04-28 02:49 | 22.16137 | 107.69665 | 38839 ft | 450 kts | 257° |
| 2026-04-28 02:49 | 22.14815 | 107.63117 | 38843 ft | 449 kts | 257° |
| 2026-04-28 02:50 | 22.13529 | 107.56525 | 38841 ft | 449 kts | 257° |
| 2026-04-28 02:50 | 22.12295 | 107.49928 | 38847 ft | 448 kts | 257° |
| 2026-04-28 02:51 | 22.11143 | 107.43340 | 38846 ft | 447 kts | 258° |
| 2026-04-28 02:51 | 22.10089 | 107.36734 | 38840 ft | 447 kts | 258° |
| 2026-04-28 02:52 | 22.09124 | 107.30097 | 38839 ft | 448 kts | 259° |
| 2026-04-28 02:52 | 22.08227 | 107.23399 | 38836 ft | 449 kts | 260° |
| 2026-04-28 02:53 | 22.07405 | 107.16774 | 38838 ft | 449 kts | 260° |
| 2026-04-28 02:53 | 22.06637 | 107.10098 | 38839 ft | 449 kts | 261° |
| 2026-04-28 02:54 | 22.05926 | 107.03417 | 38850 ft | 449 kts | 261° |
| 2026-04-28 02:54 | 22.05271 | 106.96727 | 38849 ft | 449 kts | 262° |
| 2026-04-28 02:55 | 22.04673 | 106.90023 | 38851 ft | 449 kts | 262° |
| 2026-04-28 02:55 | 22.04132 | 106.83323 | 38852 ft | 449 kts | 263° |
| 2026-04-28 02:56 | 22.03645 | 106.76615 | 38854 ft | 449 kts | 263° |
| 2026-04-28 02:56 | 22.03213 | 106.69899 | 38858 ft | 449 kts | 263° |
| 2026-04-28 02:57 | 22.02833 | 106.63183 | 38853 ft | 449 kts | 264° |
| 2026-04-28 02:57 | 22.02507 | 106.56470 | 38855 ft | 449 kts | 264° |
| 2026-04-28 02:58 | 22.02235 | 106.49741 | 38858 ft | 449 kts | 265° |
| 2026-04-28 02:58 | 22.02010 | 106.43019 | 38857 ft | 449 kts | 265° |
| 2026-04-28 02:59 | 22.01839 | 106.36289 | 38858 ft | 449 kts | 266° |
| 2026-04-28 02:59 | 22.01713 | 106.29551 | 38859 ft | 450 kts | 266° |
| 2026-04-28 03:00 | 22.01616 | 106.22808 | 38860 ft | 450 kts | 266° |
| 2026-04-28 03:00 | 22.01542 | 106.16061 | 38864 ft | 450 kts | 266° |
| 2026-04-28 03:01 | 22.01491 | 106.09311 | 38867 ft | 450 kts | 266° |
| 2026-04-28 03:01 | 22.01458 | 106.02560 | 38864 ft | 451 kts | 267° |
| 2026-04-28 03:02 | 22.01437 | 105.95801 | 38865 ft | 451 kts | 266° |
| 2026-04-28 03:02 | 22.01412 | 105.89031 | 38863 ft | 452 kts | 266° |
| 2026-04-28 03:03 | 22.01365 | 105.82252 | 38864 ft | 452 kts | 266° |
| 2026-04-28 03:03 | 22.01298 | 105.75474 | 38860 ft | 452 kts | 266° |
| 2026-04-28 03:04 | 22.01207 | 105.68700 | 38864 ft | 451 kts | 266° |
| 2026-04-28 03:04 | 22.01116 | 105.61951 | 38865 ft | 450 kts | 266° |
| 2026-04-28 03:05 | 22.01049 | 105.55207 | 38864 ft | 451 kts | 266° |
| 2026-04-28 03:05 | 22.00995 | 105.48454 | 38863 ft | 451 kts | 266° |
| 2026-04-28 03:06 | 22.00945 | 105.41689 | 38865 ft | 451 kts | 266° |
| 2026-04-28 03:06 | 22.00894 | 105.34931 | 38859 ft | 451 kts | 266° |
| 2026-04-28 03:07 | 22.00844 | 105.28167 | 38868 ft | 451 kts | 266° |
| 2026-04-28 03:07 | 22.00788 | 105.21396 | 38853 ft | 453 kts | 266° |
| 2026-04-28 03:08 | 22.00710 | 105.15745 | 38854 ft | 454 kts | 265° |
| 2026-04-28 03:08 | 22.00562 | 105.08951 | 38851 ft | 454 kts | 265° |
| 2026-04-28 03:09 | 22.00355 | 105.02158 | 38849 ft | 453 kts | 265° |
| 2026-04-28 03:09 | 22.00102 | 104.95375 | 38848 ft | 453 kts | 264° |
| 2026-04-28 03:10 | 21.99804 | 104.88595 | 38851 ft | 453 kts | 264° |
| 2026-04-28 03:10 | 21.99464 | 104.81825 | 38848 ft | 453 kts | 264° |
| 2026-04-28 03:11 | 21.99090 | 104.75058 | 38849 ft | 452 kts | 264° |
| 2026-04-28 03:11 | 21.98686 | 104.68292 | 38851 ft | 452 kts | 263° |
| 2026-04-28 03:12 | 21.98253 | 104.61535 | 38848 ft | 452 kts | 263° |
| 2026-04-28 03:12 | 21.97801 | 104.54779 | 38847 ft | 452 kts | 263° |
| 2026-04-28 03:13 | 21.97327 | 104.48024 | 38857 ft | 452 kts | 263° |
| 2026-04-28 03:13 | 21.96832 | 104.41274 | 38860 ft | 452 kts | 263° |
| 2026-04-28 03:14 | 21.96320 | 104.34531 | 38881 ft | 453 kts | 263° |
| 2026-04-28 03:14 | 21.95795 | 104.27785 | 38868 ft | 452 kts | 263° |
| 2026-04-28 03:15 | 21.95258 | 104.21040 | 38923 ft | 453 kts | 263° |
| 2026-04-28 03:15 | 21.94703 | 104.14296 | 38896 ft | 452 kts | 262° |
| 2026-04-28 03:16 | 21.94135 | 104.07564 | 38901 ft | 451 kts | 262° |
| 2026-04-28 03:16 | 21.93569 | 104.00835 | 38906 ft | 452 kts | 262° |
| 2026-04-28 03:17 | 21.92989 | 103.94094 | 38904 ft | 452 kts | 262° |
| 2026-04-28 03:17 | 21.92082 | 103.83992 | 38905 ft | 452 kts | 262° |
| 2026-04-28 03:18 | 21.91446 | 103.77244 | 38892 ft | 453 kts | 262° |
| 2026-04-28 03:18 | 21.90761 | 103.70492 | 38892 ft | 454 kts | 262° |
| 2026-04-28 03:19 | 21.90015 | 103.63749 | 38884 ft | 453 kts | 261° |
| 2026-04-28 03:19 | 21.89211 | 103.57016 | 38884 ft | 453 kts | 261° |
| 2026-04-28 03:20 | 21.88365 | 103.50316 | 38889 ft | 450 kts | 261° |
| 2026-04-28 03:20 | 21.87523 | 103.43636 | 38882 ft | 451 kts | 261° |
| 2026-04-28 03:21 | 21.86687 | 103.36935 | 38888 ft | 453 kts | 261° |
| 2026-04-28 03:21 | 21.85810 | 103.30213 | 38892 ft | 452 kts | 261° |
| 2026-04-28 03:22 | 21.84905 | 103.23518 | 38885 ft | 452 kts | 260° |
| 2026-04-28 03:22 | 21.83977 | 103.16825 | 38904 ft | 452 kts | 260° |
| 2026-04-28 03:23 | 21.83034 | 103.10138 | 38902 ft | 453 kts | 260° |
| 2026-04-28 03:23 | 21.82039 | 103.03416 | 38908 ft | 455 kts | 259° |
| 2026-04-28 03:24 | 21.80953 | 102.96702 | 38901 ft | 455 kts | 258° |
| 2026-04-28 03:24 | 21.79759 | 102.90006 | 38925 ft | 456 kts | 258° |
| 2026-04-28 03:25 | 21.78459 | 102.83333 | 38915 ft | 456 kts | 257° |
| 2026-04-28 03:25 | 21.77056 | 102.76687 | 38925 ft | 455 kts | 256° |
| 2026-04-28 03:26 | 21.75548 | 102.70061 | 38929 ft | 457 kts | 255° |
| 2026-04-28 03:26 | 21.73909 | 102.63458 | 38933 ft | 457 kts | 254° |
| 2026-04-28 03:27 | 21.72135 | 102.56895 | 38941 ft | 457 kts | 253° |
| 2026-04-28 03:27 | 21.70229 | 102.50379 | 38930 ft | 457 kts | 251° |
| 2026-04-28 03:28 | 21.68188 | 102.43904 | 38937 ft | 457 kts | 250° |
| 2026-04-28 03:28 | 21.66013 | 102.37481 | 38934 ft | 458 kts | 249° |
| 2026-04-28 03:29 | 21.63675 | 102.31093 | 38946 ft | 460 kts | 248° |
| 2026-04-28 03:29 | 21.61133 | 102.24777 | 38947 ft | 461 kts | 246° |
| 2026-04-28 03:30 | 21.58382 | 102.18558 | 38951 ft | 461 kts | 244° |
| 2026-04-28 03:30 | 21.55432 | 102.12452 | 38951 ft | 461 kts | 242° |
| 2026-04-28 03:31 | 21.52278 | 102.06460 | 38957 ft | 461 kts | 240° |
| 2026-04-28 03:31 | 21.48918 | 102.00592 | 38947 ft | 462 kts | 238° |
| 2026-04-28 03:32 | 21.45326 | 101.94853 | 38949 ft | 464 kts | 236° |
| 2026-04-28 03:32 | 21.41481 | 101.89288 | 38946 ft | 464 kts | 233° |
| 2026-04-28 03:33 | 21.37382 | 101.83928 | 38949 ft | 465 kts | 231° |
| 2026-04-28 03:33 | 21.33028 | 101.78797 | 38954 ft | 465 kts | 228° |
| 2026-04-28 03:34 | 21.28444 | 101.73914 | 38950 ft | 465 kts | 225° |
| 2026-04-28 03:34 | 21.23618 | 101.69279 | 38951 ft | 466 kts | 222° |
| 2026-04-28 03:35 | 21.18582 | 101.64955 | 38955 ft | 469 kts | 219° |
| 2026-04-28 03:35 | 21.13168 | 101.60902 | 38961 ft | 473 kts | 215° |
| 2026-04-28 03:36 | 21.07521 | 101.57353 | 38994 ft | 475 kts | 211° |
| 2026-04-28 03:36 | 21.01546 | 101.54311 | 39007 ft | 476 kts | 206° |
| 2026-04-28 03:37 | 20.95326 | 101.51849 | 39015 ft | 478 kts | 201° |
| 2026-04-28 03:37 | 20.88837 | 101.50016 | 39015 ft | 481 kts | 195° |
| 2026-04-28 03:38 | 20.82251 | 101.48936 | 39004 ft | 485 kts | 189° |
| 2026-04-28 03:38 | 20.75436 | 101.48692 | 38991 ft | 489 kts | 182° |
| 2026-04-28 03:39 | 20.68632 | 101.49426 | 38969 ft | 495 kts | 174° |
| 2026-04-28 03:39 | 20.61973 | 101.51258 | 38950 ft | 501 kts | 165° |
| 2026-04-28 03:40 | 20.55584 | 101.54340 | 38947 ft | 508 kts | 154° |
| 2026-04-28 03:40 | 20.49793 | 101.58721 | 38947 ft | 515 kts | 141° |
| 2026-04-28 03:41 | 20.44943 | 101.64362 | 38941 ft | 520 kts | 128° |
| 2026-04-28 03:41 | 20.41397 | 101.71105 | 38939 ft | 523 kts | 114° |
| 2026-04-28 03:42 | 20.39470 | 101.78568 | 38934 ft | 524 kts | 99° |
| 2026-04-28 03:42 | 20.39301 | 101.86328 | 38934 ft | 526 kts | 84° |
| 2026-04-28 03:43 | 20.40937 | 101.93903 | 38930 ft | 526 kts | 69° |
| 2026-04-28 03:43 | 20.44271 | 102.00796 | 38927 ft | 523 kts | 53° |
| 2026-04-28 03:44 | 20.49032 | 102.06591 | 38918 ft | 519 kts | 39° |
| 2026-04-28 03:44 | 20.54887 | 102.11042 | 38921 ft | 515 kts | 25° |
| 2026-04-28 03:45 | 20.61442 | 102.13996 | 38924 ft | 509 kts | 13° |
| 2026-04-28 03:45 | 20.68342 | 102.15468 | 38923 ft | 504 kts | 1° |
| 2026-04-28 03:46 | 20.75299 | 102.15567 | 38933 ft | 498 kts | 351° |
| 2026-04-28 03:46 | 20.82099 | 102.14458 | 38928 ft | 492 kts | 342° |
| 2026-04-28 03:47 | 20.88547 | 102.12357 | 38938 ft | 470 kts | 335° |
| 2026-04-28 03:47 | 20.91548 | 102.11127 | 38938 ft | 454 kts | 334° |
| 2026-04-28 03:47 | 20.94437 | 102.09916 | 38938 ft | 438 kts | 334° |
| 2026-04-28 03:48 | 20.97249 | 102.08821 | 38946 ft | 423 kts | 336° |
| 2026-04-28 03:48 | 21.00020 | 102.07929 | 38948 ft | 409 kts | 341° |
| 2026-04-28 03:48 | 21.04558 | 102.07115 | 38961 ft | 388 kts | 352° |
| 2026-04-28 03:49 | 21.09761 | 102.07664 | 38934 ft | 366 kts | 13° |
| 2026-04-28 03:49 | 21.12065 | 102.08689 | 38941 ft | 352 kts | 27° |
| 2026-04-28 03:49 | 21.13969 | 102.10223 | 38942 ft | 334 kts | 45° |
| 2026-04-28 03:50 | 21.15252 | 102.12174 | 38905 ft | 308 kts | 70° |
| 2026-04-28 03:50 | 21.15679 | 102.14259 | 38618 ft | 273 kts | 101° |
| 2026-04-28 03:50 | 21.15395 | 102.16226 | 36039 ft | 264 kts | 121° |
| 2026-04-28 03:50 | 21.14798 | 102.18043 | 31335 ft | 260 kts | 117° |
| 2026-04-28 03:51 | 21.14210 | 102.19898 | 26098 ft | 263 kts | 118° |
| 2026-04-28 03:51 | 21.13593 | 102.21703 | 21652 ft | 250 kts | 126° |
| 2026-04-28 03:51 | 21.12833 | 102.23284 | 17705 ft | 228 kts | 139° |
| 2026-04-28 03:51 | 21.11866 | 102.24513 | 13897 ft | 205 kts | 160° |
| 2026-04-28 03:52 | 21.10693 | 102.25198 | 10106 ft | 182 kts | 188° |
| 2026-04-28 03:52 | 21.09536 | 102.25207 | 6505 ft | 156 kts | 220° |
| 2026-04-28 03:52 | 21.08727 | 102.24551 | 2988 ft | 147 kts | 253° |
| 2026-04-28 03:52 | 21.08565 | 102.24160 | 1453 ft | 0 kts | 330° |
| 2026-04-28 03:53 | 21.08565 | 102.24161 | 1454 ft | 0 kts | 330° |